createdAt,value
2023-04-22T00:00:21.687Z,18.10
2023-04-22T00:03:12.467Z,22.20
2023-04-22T00:05:43.283Z,17.40
2023-04-22T00:08:14.054Z,18.20
2023-04-22T00:10:44.688Z,22.50
2023-04-22T00:13:15.321Z,16.20
2023-04-22T00:15:46.039Z,15.90
2023-04-22T00:18:16.868Z,20.20
2023-04-22T00:20:47.567Z,19.30
2023-04-22T00:23:18.333Z,17.70
2023-04-22T00:25:48.967Z,19.30
2023-04-22T00:28:19.613Z,19.30
2023-04-22T00:30:50.290Z,18.10
2023-04-22T00:33:20.946Z,17.00
2023-04-22T00:35:51.572Z,20.80
2023-04-22T00:38:22.265Z,24.90
2023-04-22T00:40:53.308Z,33.60
2023-04-22T00:45:53.264Z,31.10
2023-04-22T00:48:26.185Z,24.90
2023-04-22T00:50:58.146Z,33.00
2023-04-22T00:53:28.922Z,27.80
2023-04-22T00:55:59.914Z,28.50
2023-04-22T01:01:01.263Z,28.10
2023-04-22T01:03:32.959Z,22.60
2023-04-22T01:06:04.088Z,25.00
2023-04-22T01:08:35.026Z,22.80
2023-04-22T01:11:05.698Z,24.10
2023-04-22T01:13:36.381Z,26.00
2023-04-22T01:16:09.907Z,18.30
2023-04-22T01:18:40.813Z,19.60
2023-04-22T01:21:11.810Z,21.70
2023-04-22T01:26:11.549Z,16.10
2023-04-22T01:28:42.383Z,16.20
2023-04-22T01:31:13.355Z,19.80
2023-04-22T01:33:44.109Z,18.30
2023-04-22T01:36:14.860Z,18.20
2023-04-22T01:38:45.768Z,17.90
2023-04-22T01:41:17.089Z,17.60
2023-04-22T01:43:48.637Z,20.70
2023-04-22T01:46:19.728Z,22.10
2023-04-22T01:51:20.026Z,16.70
2023-04-22T01:53:51.263Z,20.10
2023-04-22T01:56:21.861Z,18.30
2023-04-22T01:58:52.689Z,26.50
2023-04-22T02:01:23.412Z,22.70
2023-04-22T02:03:54.189Z,18.00
2023-04-22T02:06:24.895Z,19.20
2023-04-22T02:08:55.598Z,20.20
2023-04-22T02:11:26.245Z,30.60
2023-04-22T02:13:57.369Z,23.40
2023-04-22T02:18:57.405Z,23.20
2023-04-22T02:21:29.952Z,19.10
2023-04-22T02:24:00.675Z,17.40
2023-04-22T02:26:31.344Z,18.70
2023-04-22T02:29:01.994Z,16.00
2023-04-22T02:31:33.127Z,20.30
2023-04-22T02:34:03.825Z,21.70
2023-04-22T02:36:34.490Z,19.10
2023-04-22T02:39:05.319Z,23.30
2023-04-22T02:41:35.966Z,21.60
2023-04-22T02:44:06.871Z,17.70
2023-04-22T02:46:37.539Z,24.50
2023-04-22T02:49:08.232Z,19.20
2023-04-22T02:51:40.027Z,15.80
2023-04-22T02:54:10.736Z,20.20
2023-04-22T02:56:41.372Z,21.00
2023-04-22T02:59:12.051Z,17.40
2023-04-22T03:01:42.664Z,19.60
2023-04-22T03:04:13.678Z,25.60
2023-04-22T03:06:44.527Z,21.30
2023-04-22T03:09:15.277Z,21.70
2023-04-22T03:11:45.951Z,20.60
2023-04-22T03:14:16.636Z,19.50
2023-04-22T03:16:55.768Z,21.60
2023-04-22T03:19:26.531Z,22.50
2023-04-22T03:21:57.169Z,22.60
2023-04-22T03:24:27.845Z,19.70
2023-04-22T03:26:58.570Z,16.30
2023-04-22T03:29:29.225Z,22.40
2023-04-22T03:32:02.673Z,20.90
2023-04-22T03:34:34.217Z,18.60
2023-04-22T03:37:06.520Z,19.10
2023-04-22T03:39:37.610Z,19.50
2023-04-22T03:42:08.440Z,20.30
2023-04-22T03:44:39.094Z,16.30
2023-04-22T03:47:09.798Z,17.70
2023-04-22T03:52:10.478Z,19.80
2023-04-22T03:54:41.107Z,17.40
2023-04-22T03:57:11.861Z,15.40
2023-04-22T03:59:42.772Z,17.80
2023-04-22T04:02:13.586Z,19.10
2023-04-22T04:04:44.745Z,19.90
2023-04-22T04:07:15.656Z,25.50
2023-04-22T04:09:46.354Z,19.10
2023-04-22T04:12:16.965Z,21.90
2023-04-22T04:14:47.690Z,23.10
2023-04-22T04:17:18.550Z,19.20
2023-04-22T04:19:49.238Z,23.50
2023-04-22T04:22:19.922Z,19.50
2023-04-22T04:24:50.697Z,22.00
2023-04-22T04:27:21.980Z,23.50
2023-04-22T04:29:52.746Z,21.60
2023-04-22T04:32:25.760Z,23.10
2023-04-22T04:34:56.451Z,16.70
2023-04-22T04:37:47.050Z,19.50
2023-04-22T04:40:17.822Z,20.60
2023-04-22T04:42:48.880Z,24.30
2023-04-22T04:45:40.241Z,18.00
2023-04-22T04:48:33.808Z,17.60
2023-04-22T04:51:33.288Z,16.60
2023-04-22T04:53:53.488Z,13.70
2023-04-22T04:56:24.386Z,19.30
2023-04-22T04:59:07.932Z,14.10
2023-04-22T05:01:38.764Z,18.20
2023-04-22T05:06:41.669Z,16.70
2023-04-22T05:09:12.513Z,19.60
2023-04-22T05:11:43.408Z,18.20
2023-04-22T05:16:43.214Z,21.00
2023-04-22T05:19:13.877Z,18.90
2023-04-22T05:21:44.621Z,16.70
2023-04-22T05:24:15.291Z,21.60
2023-04-22T05:26:46.353Z,15.60
2023-04-22T05:31:46.477Z,19.00
2023-04-22T05:34:17.154Z,23.20
2023-04-22T05:36:48.003Z,19.80
2023-04-22T05:39:18.833Z,23.20
2023-04-22T05:41:49.971Z,18.30
2023-04-22T05:44:20.705Z,17.50
2023-04-22T05:46:51.310Z,17.30
2023-04-22T05:49:21.960Z,15.10
2023-04-22T05:51:53.101Z,20.20
2023-04-22T05:54:23.816Z,17.70
2023-04-22T05:56:54.556Z,22.20
2023-04-22T05:59:25.225Z,23.30
2023-04-22T06:01:55.968Z,22.20
2023-04-22T06:04:26.789Z,18.00
2023-04-22T06:06:58.289Z,26.20
2023-04-22T06:09:29.001Z,24.70
2023-04-22T06:11:59.658Z,20.80
2023-04-22T06:14:30.402Z,24.80
2023-04-22T06:17:01.181Z,16.60
2023-04-22T06:19:31.827Z,16.20
2023-04-22T06:22:04.764Z,19.10
2023-04-22T06:24:35.447Z,17.80
2023-04-22T06:27:06.788Z,13.70
2023-04-22T06:29:37.935Z,17.80
2023-04-22T06:32:08.638Z,14.60
2023-04-22T06:34:39.297Z,21.80
2023-04-22T06:37:10.243Z,20.80
2023-04-22T06:42:10.543Z,17.60
2023-04-22T06:44:41.265Z,16.20
2023-04-22T06:47:11.933Z,18.50
2023-04-22T06:49:42.760Z,17.60
2023-04-22T06:52:13.417Z,16.20
2023-04-22T06:54:44.034Z,16.50
2023-04-22T06:57:14.701Z,21.70
2023-04-22T06:59:46.862Z,17.00
2023-04-22T07:02:18.105Z,15.70
2023-04-22T07:07:18.466Z,14.00
2023-04-22T07:09:49.184Z,50.00
2023-04-22T07:12:19.824Z,15.20
2023-04-22T07:17:20.564Z,14.30
2023-04-22T07:19:51.231Z,14.60
2023-04-22T07:22:21.864Z,12.80
2023-04-22T07:24:52.470Z,17.70
2023-04-22T07:27:23.322Z,16.50
2023-04-22T07:32:23.471Z,11.50
2023-04-22T07:34:54.138Z,13.10
2023-04-22T07:37:24.976Z,15.80
2023-04-22T07:39:55.669Z,11.50
2023-04-22T07:42:26.687Z,15.70
2023-04-22T07:44:57.313Z,19.00
2023-04-22T07:47:27.911Z,19.60
2023-04-22T07:49:58.656Z,13.50
2023-04-22T07:52:29.366Z,12.50
2023-04-22T07:54:59.974Z,16.00
2023-04-22T07:57:30.612Z,14.30
2023-04-22T08:00:01.215Z,14.40
2023-04-22T08:02:32.017Z,11.40
2023-04-22T08:07:33.305Z,11.70
2023-04-22T08:10:07.365Z,10.10
2023-04-22T08:12:38.269Z,14.80
2023-04-22T08:17:39.301Z,10.90
2023-04-22T08:22:40.108Z,9.00
2023-04-22T08:25:13.156Z,8.10
2023-04-22T08:27:43.851Z,12.90
2023-04-22T08:30:15.369Z,9.20
2023-04-22T08:32:46.260Z,8.90
2023-04-22T08:37:46.320Z,12.80
2023-04-22T08:42:46.881Z,9.40
2023-04-22T08:45:18.552Z,10.00
2023-04-22T08:47:50.464Z,12.40
2023-04-22T08:50:21.642Z,11.80
2023-04-22T08:52:52.338Z,15.70
2023-04-22T08:55:23.024Z,10.30
2023-04-22T08:57:54.142Z,12.40
2023-04-22T09:00:25.077Z,11.40
2023-04-22T09:02:57.371Z,12.00
2023-04-22T09:05:32.759Z,7.80
2023-04-22T09:08:03.844Z,11.20
2023-04-22T09:10:36.227Z,9.10
2023-04-22T09:13:07.971Z,9.00
2023-04-22T09:15:38.682Z,8.70
2023-04-22T09:18:10.695Z,7.30
2023-04-22T09:20:43.775Z,7.70
2023-04-22T09:23:14.786Z,8.00
2023-04-22T09:25:47.174Z,7.90
2023-04-22T09:28:20.971Z,9.40
2023-04-22T09:30:51.670Z,14.10
2023-04-22T09:33:25.457Z,13.80
2023-04-22T09:35:57.458Z,9.30
2023-04-22T09:38:32.009Z,9.40
2023-04-22T09:41:08.795Z,11.20
2023-04-22T09:43:39.709Z,8.30
2023-04-22T09:46:11.334Z,16.80
2023-04-22T09:48:46.228Z,12.00
2023-04-22T09:51:18.139Z,10.50
2023-04-22T09:53:58.859Z,15.90
2023-04-22T09:59:19.397Z,11.10
2023-04-22T10:01:51.731Z,9.90
2023-04-22T10:04:22.721Z,9.90
2023-04-22T10:06:53.885Z,11.30
2023-04-22T10:09:27.148Z,12.50
2023-04-22T10:11:58.302Z,11.40
2023-04-22T10:14:29.317Z,10.50
2023-04-22T10:17:01.853Z,13.80
2023-04-22T10:19:33.578Z,8.90
2023-04-22T10:22:05.661Z,11.10
2023-04-22T10:24:40.000Z,8.20
2023-04-22T10:27:12.251Z,10.50
2023-04-22T10:29:43.342Z,11.90
2023-04-22T10:32:27.758Z,9.10
2023-04-22T10:35:13.503Z,11.00
2023-04-22T10:37:45.787Z,13.20
2023-04-22T10:40:19.133Z,9.40
2023-04-22T10:42:51.905Z,10.40
2023-04-22T10:45:25.721Z,9.20
2023-04-22T10:48:02.634Z,8.70
2023-04-22T10:50:34.228Z,10.50
2023-04-22T10:53:37.395Z,10.60
2023-04-22T10:56:17.924Z,11.90
2023-04-22T10:58:49.265Z,10.30
2023-04-22T11:01:19.994Z,9.80
2023-04-22T11:06:22.682Z,9.40
2023-04-22T11:09:10.014Z,10.90
2023-04-22T11:11:40.705Z,8.60
2023-04-22T11:16:46.141Z,9.60
2023-04-22T11:19:16.888Z,9.40
2023-04-22T11:21:49.485Z,8.10
2023-04-22T11:24:21.480Z,8.20
2023-04-22T11:29:21.290Z,6.20
2023-04-22T11:34:21.552Z,8.90
2023-04-22T11:36:52.200Z,10.80
2023-04-22T11:41:52.276Z,9.40
2023-04-22T11:44:26.083Z,8.30
2023-04-22T11:47:00.926Z,8.90
2023-04-22T11:49:31.727Z,8.80
2023-04-22T11:52:02.442Z,9.20
2023-04-22T11:54:35.030Z,10.30
2023-04-22T11:57:08.139Z,9.70
2023-04-22T11:59:38.968Z,8.80
2023-04-22T12:02:09.898Z,11.70
2023-04-22T12:04:41.731Z,8.50
2023-04-22T12:07:12.427Z,11.80
2023-04-22T12:09:43.036Z,8.90
2023-04-22T12:14:48.082Z,9.10
2023-04-22T12:17:24.249Z,10.10
2023-04-22T12:19:57.794Z,10.30
2023-04-22T12:22:30.283Z,8.40
2023-04-22T12:25:01.443Z,8.20
2023-04-22T12:27:32.234Z,9.00
2023-04-22T12:30:04.125Z,8.00
2023-04-22T12:32:34.779Z,8.00
2023-04-22T12:37:35.253Z,10.00
2023-04-22T12:40:09.062Z,8.50
2023-04-22T12:42:39.792Z,7.10
2023-04-22T12:45:11.597Z,7.90
2023-04-22T12:47:42.429Z,9.60
2023-04-22T12:50:13.367Z,10.10
2023-04-22T12:52:43.997Z,11.70
2023-04-22T12:57:44.730Z,12.60
2023-04-22T13:00:16.283Z,9.30
2023-04-22T13:02:48.818Z,9.40
2023-04-22T13:05:20.567Z,7.70
2023-04-22T13:10:28.238Z,6.20
2023-04-22T13:13:10.197Z,7.30
2023-04-22T13:15:48.118Z,9.90
2023-04-22T13:18:18.891Z,7.00
2023-04-22T13:20:49.590Z,8.00
2023-04-22T13:23:20.312Z,10.20
2023-04-22T13:25:52.518Z,9.60
2023-04-22T13:28:23.223Z,8.30
2023-04-22T13:30:54.174Z,8.00
2023-04-22T13:33:25.247Z,8.50
2023-04-22T13:35:56.258Z,9.50
2023-04-22T13:38:26.926Z,10.40
2023-04-22T13:40:57.565Z,9.90
2023-04-22T13:45:57.365Z,8.00
2023-04-22T13:48:28.084Z,10.40
2023-04-22T13:50:58.757Z,9.70
2023-04-22T13:53:29.419Z,11.40
2023-04-22T13:56:00.147Z,9.90
2023-04-22T13:58:30.753Z,9.10
2023-04-22T14:03:30.563Z,9.80
2023-04-22T14:06:01.291Z,9.10
2023-04-22T14:08:32.085Z,8.30
2023-04-22T14:11:02.775Z,9.80
2023-04-22T14:13:33.696Z,9.10
2023-04-22T14:16:06.263Z,9.10
2023-04-22T14:18:38.791Z,11.40
2023-04-22T14:21:10.551Z,9.90
2023-04-22T14:23:41.722Z,8.70
2023-04-22T14:26:13.502Z,7.10
2023-04-22T14:28:44.128Z,6.40
2023-04-22T14:33:43.863Z,5.60
2023-04-22T14:38:43.584Z,5.50
2023-04-22T14:41:14.401Z,5.90
2023-04-22T14:43:45.066Z,6.70
2023-04-22T14:46:15.777Z,6.50
2023-04-22T14:48:46.461Z,9.50
2023-04-22T14:51:17.526Z,7.10
2023-04-22T14:53:48.152Z,5.60
2023-04-22T14:56:18.958Z,10.60
2023-04-22T14:58:49.970Z,8.10
2023-04-22T15:01:21.203Z,6.20
2023-04-22T15:03:52.199Z,8.00
2023-04-22T15:06:24.016Z,7.80
2023-04-22T15:08:54.657Z,6.40
2023-04-22T15:11:25.350Z,6.90
2023-04-22T15:16:28.232Z,5.50
2023-04-22T15:18:59.631Z,7.40
2023-04-22T15:21:32.462Z,8.30
2023-04-22T15:24:03.176Z,11.20
2023-04-22T15:26:33.949Z,6.40
2023-04-22T15:29:04.603Z,9.30
2023-04-22T15:34:04.536Z,5.80
2023-04-22T15:36:35.204Z,8.60
2023-04-22T15:41:36.608Z,5.80
2023-04-22T15:44:08.776Z,8.70
2023-04-22T15:46:40.700Z,6.60
2023-04-22T15:49:12.357Z,8.20
2023-04-22T15:51:43.143Z,7.50
2023-04-22T15:54:13.939Z,7.50
2023-04-22T15:56:44.915Z,7.00
2023-04-22T15:59:15.709Z,7.90
2023-04-22T16:01:47.191Z,6.30
2023-04-22T16:04:20.165Z,7.10
2023-04-22T16:07:15.374Z,8.20
2023-04-22T16:09:45.981Z,6.40
2023-04-22T16:12:16.713Z,6.70
2023-04-22T16:17:17.400Z,6.10
2023-04-22T16:19:48.132Z,5.20
2023-04-22T16:24:48.071Z,7.40
2023-04-22T16:29:48.140Z,6.30
2023-04-22T16:32:18.842Z,6.80
2023-04-22T16:37:18.628Z,7.30
2023-04-22T16:39:49.384Z,6.10
2023-04-22T16:44:49.353Z,8.70
2023-04-22T16:49:49.122Z,5.30
2023-04-22T16:52:20.066Z,7.20
2023-04-22T16:57:20.118Z,6.60
2023-04-22T16:59:50.838Z,7.50
2023-04-22T17:02:21.557Z,7.20
2023-04-22T17:04:52.786Z,7.20
2023-04-22T17:07:43.978Z,10.10
2023-04-22T17:10:14.731Z,7.40
2023-04-22T17:15:18.360Z,8.00
2023-04-22T17:17:49.164Z,9.30
2023-04-22T17:22:49.503Z,11.80
2023-04-22T17:25:20.274Z,12.10
2023-04-22T17:30:20.672Z,14.60
2023-04-22T17:32:51.602Z,9.00
2023-04-22T17:35:22.426Z,8.80
2023-04-22T17:40:22.610Z,9.90
2023-04-22T17:42:56.045Z,10.40
2023-04-22T17:45:26.710Z,8.00
2023-04-22T17:47:57.968Z,18.80
2023-04-22T17:50:28.756Z,13.70
2023-04-22T17:55:35.723Z,14.60
2023-04-22T17:58:10.777Z,14.20
2023-04-22T18:00:41.442Z,15.80
2023-04-22T18:03:12.297Z,14.30
2023-04-22T18:05:43.184Z,13.90
2023-04-22T18:10:43.023Z,19.50
2023-04-22T18:13:13.714Z,19.80
2023-04-22T18:15:44.610Z,16.60
2023-04-22T18:18:15.389Z,18.00
2023-04-22T18:23:15.995Z,21.00
2023-04-22T18:25:46.666Z,23.10
2023-04-22T18:28:17.536Z,29.30
2023-04-22T18:33:17.427Z,21.70
2023-04-22T18:35:48.175Z,18.70
2023-04-22T18:38:18.816Z,20.50
2023-04-22T18:40:49.521Z,18.40
2023-04-22T18:43:20.247Z,23.00
2023-04-22T18:45:50.990Z,28.20
2023-04-22T18:48:21.682Z,43.60
2023-04-22T18:50:52.579Z,44.90
2023-04-22T18:55:52.439Z,38.40
2023-04-22T18:58:23.144Z,36.60
2023-04-22T19:00:54.079Z,32.80
2023-04-22T19:05:54.057Z,34.20
2023-04-22T19:08:24.713Z,30.30
2023-04-22T19:10:56.033Z,33.50
2023-04-22T19:13:29.723Z,34.80
2023-04-22T19:16:01.256Z,30.30
2023-04-22T19:21:01.205Z,32.30
2023-04-22T19:23:32.027Z,28.30
2023-04-22T19:26:02.837Z,26.80
2023-04-22T19:28:35.379Z,26.80
2023-04-22T19:31:06.454Z,26.60
2023-04-22T19:33:37.371Z,27.00
2023-04-22T19:38:37.849Z,20.60
2023-04-22T19:41:08.654Z,19.30
2023-04-22T19:43:39.372Z,21.70
2023-04-22T19:46:10.483Z,24.90
2023-04-22T19:48:43.907Z,23.00
2023-04-22T19:51:15.647Z,17.80
2023-04-22T19:53:46.879Z,18.80
2023-04-22T19:56:18.218Z,17.50
2023-04-22T19:58:49.075Z,18.60
2023-04-22T20:01:23.015Z,19.00
2023-04-22T20:03:56.274Z,16.40
2023-04-22T20:06:28.927Z,17.20
2023-04-22T20:09:00.647Z,17.90
2023-04-22T20:11:31.968Z,17.60
2023-04-22T20:14:04.556Z,17.50
2023-04-22T20:16:37.700Z,16.10
2023-04-22T20:19:09.007Z,18.40
2023-04-22T20:21:40.367Z,15.90
2023-04-22T20:24:16.086Z,15.50
2023-04-22T20:26:47.308Z,21.10
2023-04-22T20:29:18.944Z,17.50
2023-04-22T20:31:50.331Z,15.30
2023-04-22T20:34:21.699Z,20.10
2023-04-22T20:36:53.084Z,17.40
2023-04-22T20:39:24.041Z,16.50
2023-04-22T20:41:56.751Z,19.10
2023-04-22T20:44:27.451Z,18.20
2023-04-22T20:46:58.160Z,20.60
2023-04-22T20:49:28.931Z,18.90
2023-04-22T20:51:59.880Z,17.90
2023-04-22T20:57:00.286Z,19.00
2023-04-22T20:59:30.903Z,22.60
2023-04-22T21:02:02.283Z,19.70
2023-04-22T21:04:33.607Z,19.20
2023-04-22T21:10:26.080Z,20.90
2023-04-22T21:10:39.958Z,17.40
2023-04-22T21:12:57.847Z,38.10
2023-04-22T21:15:29.498Z,33.20
2023-04-22T21:18:02.170Z,39.50
2023-04-22T21:20:33.480Z,49.70
2023-04-22T21:23:04.200Z,43.50
2023-04-22T21:25:36.246Z,37.60
2023-04-22T21:28:12.322Z,36.00
2023-04-22T21:30:44.086Z,41.90
2023-04-22T21:33:14.858Z,38.50
2023-04-22T21:35:45.553Z,55.30
2023-04-22T21:38:16.342Z,62.90
2023-04-22T21:40:47.602Z,56.50
2023-04-22T21:43:18.468Z,50.80
2023-04-22T21:45:49.124Z,52.60
2023-04-22T21:48:19.808Z,58.90
2023-04-22T21:50:50.915Z,51.10
2023-04-22T21:53:21.663Z,62.70
2023-04-22T21:55:57.005Z,65.00
2023-04-22T21:58:30.192Z,64.20
2023-04-22T22:01:00.849Z,63.00
2023-04-22T22:03:31.700Z,62.00
2023-04-22T22:06:02.984Z,71.40
2023-04-22T22:08:35.687Z,82.90
2023-04-22T22:11:09.184Z,67.60
2023-04-22T22:13:43.224Z,71.60
2023-04-22T22:16:13.919Z,62.50
2023-04-22T22:18:44.615Z,64.90
2023-04-22T22:21:15.581Z,59.90
2023-04-22T22:26:15.711Z,51.90
2023-04-22T22:28:46.633Z,55.70
2023-04-22T22:33:46.927Z,52.50
2023-04-22T22:36:17.700Z,47.00
2023-04-22T22:38:48.483Z,49.20
2023-04-22T22:41:19.165Z,48.30
2023-04-22T22:43:49.881Z,50.70
2023-04-22T22:46:30.609Z,54.20
2023-04-22T22:49:01.420Z,52.90
2023-04-22T22:51:32.234Z,54.80
2023-04-22T22:54:03.288Z,48.50
2023-04-22T22:56:33.986Z,51.00
2023-04-22T22:59:04.631Z,61.30
2023-04-22T23:01:35.287Z,49.80
2023-04-22T23:04:06.354Z,55.20
2023-04-22T23:06:37.229Z,53.90
2023-04-22T23:09:08.015Z,52.00
2023-04-22T23:11:38.731Z,55.90
2023-04-22T23:14:09.519Z,65.90
2023-04-22T23:16:40.230Z,67.30
2023-04-22T23:19:12.740Z,66.80
2023-04-22T23:21:44.244Z,72.10
2023-04-22T23:24:16.449Z,74.80
2023-04-22T23:26:48.029Z,64.90
2023-04-22T23:29:22.743Z,65.90
2023-04-22T23:31:55.340Z,64.90
2023-04-22T23:34:27.463Z,54.30
2023-04-22T23:36:59.178Z,53.50
2023-04-22T23:39:33.009Z,50.30
2023-04-22T23:42:03.649Z,52.80
2023-04-22T23:44:34.359Z,48.70
2023-04-22T23:47:05.405Z,47.10
2023-04-22T23:52:05.303Z,43.90
2023-04-22T23:54:38.936Z,42.00
2023-04-22T23:57:35.274Z,46.80
